createdAt,value
2022-10-24T00:01:46.626Z,0.80
2022-10-24T00:04:14.913Z,0.10
2022-10-24T00:06:43.382Z,0.33
2022-10-24T00:09:11.946Z,0.70
2022-10-24T00:11:43.399Z,0.60
2022-10-24T00:14:11.566Z,0.97
2022-10-24T00:16:39.560Z,0.30
2022-10-24T00:19:09.030Z,0.70
2022-10-24T00:21:37.138Z,0.73
2022-10-24T00:24:05.686Z,0.43
2022-10-24T00:26:34.067Z,0.57
2022-10-24T00:29:02.289Z,0.50
2022-10-24T00:31:30.413Z,0.60
2022-10-24T00:33:59.924Z,0.83
2022-10-24T00:36:29.937Z,0.57
2022-10-24T00:38:58.036Z,0.30
2022-10-24T00:41:28.076Z,0.70
2022-10-24T00:44:14.733Z,0.40
2022-10-24T00:46:45.643Z,1.03
2022-10-24T00:49:17.745Z,0.40
2022-10-24T00:51:49.832Z,0.33
2022-10-24T00:54:18.839Z,1.07
2022-10-24T00:56:55.371Z,1.37
2022-10-24T00:59:25.036Z,1.07
2022-10-24T01:01:53.676Z,0.20
2022-10-24T01:04:21.893Z,0.73
2022-10-24T01:07:02.972Z,0.40
2022-10-24T01:09:50.917Z,0.97
2022-10-24T01:12:32.033Z,0.13
2022-10-24T01:15:08.647Z,0.60
2022-10-24T01:17:43.655Z,0.40
2022-10-24T01:20:35.565Z,0.90
2022-10-24T01:23:31.406Z,0.40
2022-10-24T01:26:12.414Z,0.70
2022-10-24T01:28:50.858Z,0.80
2022-10-24T01:31:28.070Z,0.90
2022-10-24T01:34:03.559Z,0.20
2022-10-24T01:36:39.783Z,0.63
2022-10-24T01:39:14.234Z,0.60
2022-10-24T01:41:45.018Z,0.10
2022-10-24T01:44:19.060Z,0.57
2022-10-24T01:46:53.505Z,0.10
2022-10-24T01:49:24.494Z,0.57
2022-10-24T01:51:57.650Z,0.50
2022-10-24T01:54:26.037Z,0.40
2022-10-24T01:56:54.101Z,0.60
2022-10-24T01:59:46.988Z,0.63
2022-10-24T02:02:21.075Z,0.20
2022-10-24T02:04:56.066Z,0.43
2022-10-24T02:07:25.577Z,0.20
2022-10-24T02:09:58.810Z,0.30
2022-10-24T02:12:28.576Z,0.13
2022-10-24T02:15:01.163Z,0.40
2022-10-24T02:17:30.944Z,0.50
2022-10-24T02:20:00.559Z,0.17
2022-10-24T02:22:31.969Z,0.40
2022-10-24T02:25:06.299Z,0.30
2022-10-24T02:27:40.100Z,0.20
2022-10-24T02:30:13.539Z,0.73
2022-10-24T02:32:45.441Z,0.55
2022-10-24T02:35:17.381Z,0.50
2022-10-24T02:37:49.183Z,0.67
2022-10-24T02:40:19.987Z,0.30
2022-10-24T02:42:50.181Z,0.37
2022-10-24T02:45:19.551Z,0.60
2022-10-24T02:47:50.056Z,0.20
2022-10-24T02:50:18.659Z,0.50
2022-10-24T02:52:47.933Z,0.73
2022-10-24T02:55:16.242Z,0.40
2022-10-24T02:57:44.611Z,0.30
2022-10-24T03:00:13.953Z,0.93
2022-10-24T03:02:42.121Z,0.30
2022-10-24T03:05:13.026Z,0.20
2022-10-24T03:07:41.102Z,0.30
2022-10-24T03:10:09.819Z,0.63
2022-10-24T03:12:37.981Z,0.20
2022-10-24T03:15:07.446Z,0.30
2022-10-24T03:17:35.619Z,0.67
2022-10-24T03:20:03.638Z,0.40
2022-10-24T03:22:33.289Z,0.80
2022-10-24T03:25:03.936Z,0.30
2022-10-24T03:27:34.165Z,0.23
2022-10-24T03:30:02.461Z,0.57
2022-10-24T03:32:30.655Z,0.73
2022-10-24T03:34:58.638Z,0.60
2022-10-24T03:37:27.196Z,0.50
2022-10-24T03:39:57.185Z,0.30
2022-10-24T03:42:25.227Z,0.50
2022-10-24T03:44:53.294Z,0.63
2022-10-24T03:47:21.313Z,0.40
2022-10-24T03:49:49.391Z,0.63
2022-10-24T03:52:17.630Z,0.63
2022-10-24T03:54:45.948Z,0.20
2022-10-24T03:57:15.728Z,1.07
2022-10-24T03:59:44.157Z,1.07
2022-10-24T04:02:13.551Z,0.37
2022-10-24T04:04:42.257Z,0.60
2022-10-24T04:07:10.374Z,0.40
2022-10-24T04:09:38.589Z,0.83
2022-10-24T04:12:07.204Z,0.20
2022-10-24T04:14:36.714Z,0.23
2022-10-24T04:17:04.841Z,0.60
2022-10-24T04:19:33.186Z,0.30
2022-10-24T04:22:01.491Z,0.50
2022-10-24T04:24:29.731Z,0.20
2022-10-24T04:26:58.413Z,0.67
2022-10-24T04:29:26.631Z,1.20
2022-10-24T04:31:56.299Z,0.53
2022-10-24T04:34:24.443Z,0.80
2022-10-24T04:36:52.570Z,0.40
2022-10-24T04:39:21.294Z,0.27
2022-10-24T04:41:49.396Z,0.40
2022-10-24T04:44:17.375Z,1.07
2022-10-24T04:46:49.259Z,0.70
2022-10-24T04:49:20.856Z,0.10
2022-10-24T04:51:48.944Z,0.70
2022-10-24T04:54:17.194Z,0.03
2022-10-24T04:56:45.243Z,0.53
2022-10-24T04:59:13.469Z,0.73
2022-10-24T05:01:41.894Z,0.60
2022-10-24T05:04:10.065Z,0.20
2022-10-24T05:06:42.713Z,1.03
2022-10-24T05:09:13.047Z,0.43
2022-10-24T05:11:41.155Z,0.30
2022-10-24T05:14:09.345Z,0.40
2022-10-24T05:16:38.266Z,0.83
2022-10-24T05:19:06.383Z,0.70
2022-10-24T05:21:34.657Z,1.23
2022-10-24T05:24:04.196Z,0.47
2022-10-24T05:26:32.387Z,0.43
2022-10-24T05:29:00.502Z,0.50
2022-10-24T05:31:28.758Z,0.60
2022-10-24T05:33:57.198Z,0.80
2022-10-24T05:36:25.257Z,0.73
2022-10-24T05:38:53.382Z,1.20
2022-10-24T05:41:23.078Z,0.63
2022-10-24T05:43:51.419Z,0.63
2022-10-24T05:46:19.860Z,0.63
2022-10-24T05:48:48.408Z,1.17
2022-10-24T05:51:16.507Z,1.73
2022-10-24T05:53:44.579Z,0.57
2022-10-24T05:56:12.782Z,0.50
2022-10-24T05:58:42.696Z,0.93
2022-10-24T06:01:10.877Z,0.93
2022-10-24T06:03:39.733Z,0.90
2022-10-24T06:06:10.894Z,0.77
2022-10-24T06:08:39.817Z,0.60
2022-10-24T06:11:10.787Z,0.30
2022-10-24T06:13:39.722Z,0.60
2022-10-24T06:16:11.730Z,0.20
2022-10-24T06:18:41.349Z,0.70
2022-10-24T06:21:10.870Z,1.63
2022-10-24T06:23:39.087Z,0.90
2022-10-24T06:26:10.218Z,0.60
2022-10-24T06:28:38.821Z,0.40
2022-10-24T06:31:09.054Z,0.63
2022-10-24T06:33:37.169Z,0.80
2022-10-24T06:36:09.538Z,0.43
2022-10-24T06:38:38.267Z,0.47
2022-10-24T06:41:11.245Z,0.40
2022-10-24T06:43:39.904Z,0.70
2022-10-24T06:46:10.577Z,0.67
2022-10-24T06:48:39.310Z,0.60
2022-10-24T06:51:07.985Z,0.47
2022-10-24T06:53:36.260Z,0.25
2022-10-24T06:56:06.776Z,0.47
2022-10-24T06:58:37.331Z,0.47
2022-10-24T07:01:11.451Z,0.40
2022-10-24T07:03:40.363Z,0.50
2022-10-24T07:06:09.458Z,1.10
2022-10-24T07:08:38.046Z,1.00
2022-10-24T07:11:06.557Z,0.82
2022-10-24T07:13:34.754Z,0.65
2022-10-24T07:16:03.292Z,0.80
2022-10-24T07:18:33.592Z,1.42
2022-10-24T07:21:06.472Z,1.25
2022-10-24T07:23:35.688Z,1.17
2022-10-24T07:26:05.096Z,2.33
2022-10-24T07:28:33.692Z,2.03
2022-10-24T07:31:02.869Z,1.10
2022-10-24T07:33:32.994Z,2.92
2022-10-24T07:36:01.595Z,2.95
2022-10-24T07:38:29.642Z,2.15
2022-10-24T07:40:57.848Z,2.13
2022-10-24T07:43:26.145Z,1.80
2022-10-24T07:45:54.312Z,2.95
2022-10-24T07:48:22.699Z,2.03
2022-10-24T07:50:52.270Z,2.50
2022-10-24T07:53:21.042Z,2.03
2022-10-24T07:55:49.210Z,2.58
2022-10-24T07:58:17.604Z,1.45
2022-10-24T08:00:47.420Z,0.90
2022-10-24T08:03:15.855Z,1.25
2022-10-24T08:05:44.902Z,1.70
2022-10-24T08:11:03.160Z,1.10
2022-10-24T08:13:31.298Z,0.82
2022-10-24T08:15:59.598Z,1.67
2022-10-24T08:18:30.274Z,1.15
2022-10-24T08:21:00.034Z,0.73
2022-10-24T08:23:30.012Z,0.90
2022-10-24T08:25:58.262Z,1.27
2022-10-24T08:28:26.691Z,1.13
2022-10-24T08:30:59.237Z,1.35
2022-10-24T08:33:28.372Z,1.08
2022-10-24T08:36:00.910Z,0.20
2022-10-24T08:38:31.297Z,0.60
2022-10-24T08:41:00.044Z,1.35
2022-10-24T08:43:28.551Z,1.27
2022-10-24T08:46:06.792Z,1.15
2022-10-24T08:48:43.810Z,0.65
2022-10-24T08:51:22.899Z,0.82
2022-10-24T08:53:56.552Z,0.68
2022-10-24T08:56:28.970Z,1.08
2022-10-24T08:58:58.693Z,0.40
2022-10-24T09:01:33.589Z,1.23
2022-10-24T09:04:06.086Z,0.95
2022-10-24T09:06:34.218Z,1.15
2022-10-24T09:09:06.425Z,1.05
2022-10-24T09:11:45.402Z,0.20
2022-10-24T09:14:15.243Z,0.77
2022-10-24T09:16:44.786Z,0.52
2022-10-24T09:19:16.469Z,0.40
2022-10-24T09:21:45.885Z,0.43
2022-10-24T09:24:25.257Z,0.65
2022-10-24T09:26:54.402Z,0.22
2022-10-24T09:29:23.169Z,0.50
2022-10-24T09:31:51.342Z,0.47
2022-10-24T09:34:19.538Z,0.30
2022-10-24T09:36:48.304Z,0.30
2022-10-24T09:39:41.729Z,0.73
2022-10-24T09:42:22.130Z,0.70
2022-10-24T09:44:50.230Z,0.43
2022-10-24T09:47:27.873Z,0.68
2022-10-24T09:49:56.773Z,0.63
2022-10-24T09:52:29.344Z,0.68
2022-10-24T09:55:19.691Z,0.20
2022-10-24T09:57:48.868Z,1.00
2022-10-24T10:00:27.135Z,0.90
2022-10-24T10:03:02.274Z,0.50
2022-10-24T10:05:44.635Z,0.25
2022-10-24T10:08:18.612Z,0.47
2022-10-24T10:10:57.951Z,0.73
2022-10-24T10:13:28.286Z,0.98
2022-10-24T10:15:58.135Z,0.60
2022-10-24T10:18:34.179Z,0.70
2022-10-24T10:21:15.081Z,1.55
2022-10-24T10:23:45.889Z,1.05
2022-10-24T10:26:20.162Z,0.80
2022-10-24T10:28:58.073Z,0.73
2022-10-24T10:31:30.079Z,0.50
2022-10-24T10:34:16.080Z,0.75
2022-10-24T10:37:00.428Z,0.70
2022-10-24T10:39:46.842Z,1.10
2022-10-24T10:42:20.634Z,1.40
2022-10-24T10:45:01.143Z,0.52
2022-10-24T10:47:38.230Z,0.52
2022-10-24T10:50:26.508Z,0.65
2022-10-24T10:53:02.022Z,0.40
2022-10-24T10:55:36.631Z,0.38
2022-10-24T10:58:21.957Z,0.22
2022-10-24T11:01:01.883Z,0.65
2022-10-24T11:03:39.058Z,0.50
2022-10-24T11:06:21.127Z,0.63
2022-10-24T11:09:19.132Z,0.57
2022-10-24T11:11:52.678Z,0.80
2022-10-24T11:17:00.268Z,0.75
2022-10-24T11:19:33.789Z,0.35
2022-10-24T11:22:06.577Z,0.45
2022-10-24T11:24:40.546Z,0.43
2022-10-24T11:27:14.886Z,0.40
2022-10-24T11:29:55.339Z,0.35
2022-10-24T11:32:33.700Z,0.30
2022-10-24T11:35:07.509Z,0.40
2022-10-24T11:37:38.474Z,0.30
2022-10-24T11:40:11.926Z,1.65
2022-10-24T11:45:16.620Z,0.25
2022-10-24T11:48:03.672Z,0.70
2022-10-24T11:50:37.838Z,0.30
2022-10-24T11:53:17.871Z,0.50
2022-10-24T11:55:53.743Z,0.47
2022-10-24T11:58:25.154Z,0.45
2022-10-24T12:01:38.775Z,0.30
2022-10-24T12:04:26.268Z,0.40
2022-10-24T12:07:23.046Z,0.38
2022-10-24T12:10:08.363Z,1.35
2022-10-24T12:13:05.474Z,0.25
2022-10-24T12:15:47.199Z,0.30
2022-10-24T12:18:30.323Z,0.32
2022-10-24T12:21:02.832Z,0.43
2022-10-24T12:23:32.090Z,0.20
2022-10-24T12:26:05.776Z,0.52
2022-10-24T12:31:26.150Z,0.60
2022-10-24T12:34:48.841Z,0.70
2022-10-24T12:37:36.008Z,0.45
2022-10-24T12:40:37.438Z,0.38
2022-10-24T12:43:27.785Z,0.45
2022-10-24T12:45:56.270Z,0.63
2022-10-24T12:48:36.490Z,0.52
2022-10-24T12:51:22.373Z,0.65
2022-10-24T12:54:16.072Z,0.30
2022-10-24T12:57:23.183Z,0.32
2022-10-24T12:59:53.022Z,0.60
2022-10-24T13:02:35.279Z,0.40
2022-10-24T13:05:18.486Z,0.68
2022-10-24T13:08:09.686Z,0.57
2022-10-24T13:11:04.549Z,0.50
2022-10-24T13:13:48.958Z,1.98
2022-10-24T13:16:30.365Z,2.63
2022-10-24T13:19:10.648Z,3.45
2022-10-24T13:21:48.511Z,2.97
2022-10-24T13:24:36.761Z,8.32
2022-10-24T13:27:38.148Z,12.48
2022-10-24T13:30:26.426Z,4.13
2022-10-24T13:33:28.249Z,3.15
2022-10-24T13:35:57.990Z,1.55
2022-10-24T13:38:27.501Z,1.00
2022-10-24T13:40:57.171Z,1.00
2022-10-24T13:43:25.342Z,1.20
2022-10-24T13:45:59.233Z,0.77
2022-10-24T13:48:30.384Z,0.50
2022-10-24T13:51:07.148Z,0.30
2022-10-24T13:53:46.348Z,0.55
2022-10-24T13:56:16.570Z,0.30
2022-10-24T13:58:46.467Z,0.65
2022-10-24T14:01:20.313Z,0.50
2022-10-24T14:03:50.705Z,2.35
2022-10-24T14:06:25.946Z,0.98
2022-10-24T14:09:05.815Z,0.57
2022-10-24T14:11:42.059Z,0.20
2022-10-24T14:14:25.759Z,0.17
2022-10-24T14:17:07.909Z,0.50
2022-10-24T14:19:39.254Z,0.63
2022-10-24T14:22:21.082Z,0.30
2022-10-24T14:24:50.065Z,0.55
2022-10-24T14:27:21.511Z,0.45
2022-10-24T14:29:59.913Z,0.38
2022-10-24T14:32:30.786Z,0.32
2022-10-24T14:37:33.234Z,0.40
2022-10-24T14:40:01.918Z,0.95
2022-10-24T14:42:32.473Z,0.22
2022-10-24T14:45:00.828Z,0.22
2022-10-24T14:47:31.328Z,0.77
2022-10-24T14:49:59.942Z,0.95
2022-10-24T14:52:32.416Z,0.32
2022-10-24T14:55:04.489Z,0.28
2022-10-24T14:57:36.512Z,0.52
2022-10-24T15:00:08.578Z,0.38
2022-10-24T15:02:42.147Z,0.73
2022-10-24T15:05:28.282Z,0.52
2022-10-24T15:10:49.049Z,0.10
2022-10-24T15:13:21.836Z,1.15
2022-10-24T15:15:55.261Z,0.32
2022-10-24T15:18:25.273Z,0.90
2022-10-24T15:20:55.528Z,1.05
2022-10-24T15:23:28.164Z,0.47
2022-10-24T15:26:02.713Z,0.43
2022-10-24T15:28:45.774Z,0.63
2022-10-24T15:31:14.779Z,0.30
2022-10-24T15:33:43.447Z,0.28
2022-10-24T15:36:19.123Z,0.63
2022-10-24T15:38:48.665Z,0.30
2022-10-24T15:41:17.253Z,0.40
2022-10-24T15:43:46.968Z,0.63
2022-10-24T15:46:15.053Z,0.60
2022-10-24T15:48:43.283Z,0.30
2022-10-24T15:51:15.345Z,0.40
2022-10-24T15:53:43.582Z,0.60
2022-10-24T15:56:12.886Z,0.10
2022-10-24T15:58:41.409Z,0.68
2022-10-24T16:01:23.981Z,0.65
2022-10-24T16:03:52.195Z,1.05
2022-10-24T16:06:20.945Z,0.28
2022-10-24T16:08:49.435Z,0.50
2022-10-24T16:11:18.067Z,0.38
2022-10-24T16:13:47.317Z,0.45
2022-10-24T16:16:16.783Z,0.55
2022-10-24T16:18:45.261Z,0.38
2022-10-24T16:21:17.974Z,0.32
2022-10-24T16:23:46.313Z,0.20
2022-10-24T16:26:15.203Z,0.52
2022-10-24T16:28:44.119Z,0.45
2022-10-24T16:31:18.740Z,0.43
2022-10-24T16:33:48.299Z,0.50
2022-10-24T16:36:18.479Z,0.80
2022-10-24T16:38:49.237Z,1.10
2022-10-24T16:41:18.470Z,0.40
2022-10-24T16:43:50.011Z,0.68
2022-10-24T16:46:20.139Z,0.10
2022-10-24T16:48:50.467Z,0.70
2022-10-24T16:51:20.953Z,0.60
2022-10-24T16:53:48.980Z,0.98
2022-10-24T16:56:17.398Z,0.20
2022-10-24T16:58:45.621Z,0.40
2022-10-24T17:01:16.470Z,0.32
2022-10-24T17:03:46.145Z,0.40
2022-10-24T17:06:16.099Z,0.47
2022-10-24T17:08:44.350Z,1.67
2022-10-24T17:11:39.361Z,1.05
2022-10-24T17:14:01.467Z,0.55
2022-10-24T17:16:29.559Z,1.58
2022-10-24T17:19:14.778Z,0.63
2022-10-24T17:21:48.035Z,1.13
2022-10-24T17:24:18.285Z,0.30
2022-10-24T17:26:46.578Z,0.82
2022-10-24T17:29:23.870Z,0.25
2022-10-24T17:31:52.054Z,0.47
2022-10-24T17:34:20.560Z,0.68
2022-10-24T17:36:58.107Z,0.80
2022-10-24T17:39:28.934Z,0.32
2022-10-24T17:41:57.335Z,0.20
2022-10-24T17:44:26.105Z,0.60
2022-10-24T17:46:58.234Z,1.52
2022-10-24T17:49:26.979Z,0.40
2022-10-24T17:51:56.706Z,0.30
2022-10-24T17:54:24.800Z,0.43
2022-10-24T17:56:52.946Z,0.70
2022-10-24T17:59:22.038Z,0.10
2022-10-24T18:01:50.604Z,1.07
2022-10-24T18:04:18.844Z,0.20
2022-10-24T18:06:46.925Z,0.20
2022-10-24T18:09:16.460Z,1.13
2022-10-24T18:11:44.818Z,0.30
2022-10-24T18:14:12.881Z,0.90
2022-10-24T18:16:41.383Z,1.35
2022-10-24T18:19:09.729Z,0.52
2022-10-24T18:21:38.023Z,1.25
2022-10-24T18:24:08.767Z,0.60
2022-10-24T18:26:38.277Z,0.50
2022-10-24T18:29:06.554Z,0.55
2022-10-24T18:31:35.255Z,0.60
2022-10-24T18:34:07.548Z,1.00
2022-10-24T18:36:37.163Z,1.23
2022-10-24T18:39:05.667Z,0.10
2022-10-24T18:41:46.723Z,0.70
2022-10-24T18:44:26.437Z,0.30
2022-10-24T18:46:56.443Z,0.87
2022-10-24T18:49:25.397Z,0.40
2022-10-24T18:52:01.495Z,0.30
2022-10-24T18:54:31.306Z,0.80
2022-10-24T18:57:01.073Z,0.77
2022-10-24T18:59:31.020Z,0.40
2022-10-24T19:02:19.368Z,0.70
2022-10-24T19:04:53.797Z,1.57
2022-10-24T19:07:22.410Z,0.30
2022-10-24T19:09:50.579Z,1.07
2022-10-24T19:12:20.345Z,0.37
2022-10-24T19:14:48.878Z,0.33
2022-10-24T19:17:17.158Z,0.10
2022-10-24T19:19:45.342Z,0.43
2022-10-24T19:22:13.721Z,0.60
2022-10-24T19:24:41.788Z,0.60
2022-10-24T19:27:09.958Z,0.97
2022-10-24T19:29:39.717Z,0.50
2022-10-24T19:32:08.041Z,0.30
2022-10-24T19:34:36.205Z,0.57
2022-10-24T19:37:04.566Z,0.20
2022-10-24T19:39:34.002Z,0.30
2022-10-24T19:42:02.292Z,0.37
2022-10-24T19:44:30.463Z,0.50
2022-10-24T19:47:00.127Z,0.30
2022-10-24T19:49:28.232Z,0.50
2022-10-24T19:51:57.118Z,0.40
2022-10-24T19:54:25.202Z,1.07
2022-10-24T19:56:54.610Z,0.40
2022-10-24T19:59:22.903Z,0.40
2022-10-24T20:01:50.948Z,0.30
2022-10-24T20:04:20.989Z,0.20
2022-10-24T20:06:49.386Z,0.83
2022-10-24T20:09:17.864Z,0.80
2022-10-24T20:11:45.917Z,0.20
2022-10-24T20:14:14.055Z,0.20
2022-10-24T20:16:42.310Z,0.20
2022-10-24T20:19:10.306Z,0.20
2022-10-24T20:21:39.790Z,0.40
2022-10-24T20:24:08.881Z,0.47
2022-10-24T20:26:37.109Z,0.17
2022-10-24T20:29:05.732Z,0.50
2022-10-24T20:31:35.921Z,0.22
2022-10-24T20:34:09.894Z,1.07
2022-10-24T20:39:09.378Z,0.57
2022-10-24T20:41:37.818Z,0.63
2022-10-24T20:44:07.309Z,1.00
2022-10-24T20:46:35.881Z,0.40
2022-10-24T20:49:04.777Z,0.40
2022-10-24T20:51:32.923Z,0.20
2022-10-24T20:54:02.800Z,0.27
2022-10-24T20:56:30.968Z,0.20
2022-10-24T20:58:59.054Z,0.83
2022-10-24T21:01:30.124Z,1.17
2022-10-24T21:03:59.489Z,0.60
2022-10-24T21:06:29.527Z,0.73
2022-10-24T21:08:59.500Z,0.47
2022-10-24T21:11:31.233Z,0.37
2022-10-24T21:14:01.956Z,0.70
2022-10-24T21:16:30.603Z,0.38
2022-10-24T21:18:58.945Z,0.70
2022-10-24T21:21:27.456Z,0.30
2022-10-24T21:23:59.644Z,0.80
2022-10-24T21:26:32.246Z,0.47
2022-10-24T21:29:14.574Z,0.67
2022-10-24T21:31:50.033Z,1.23
2022-10-24T21:34:18.270Z,0.33
2022-10-24T21:36:46.966Z,0.13
2022-10-24T21:39:16.776Z,0.50
2022-10-24T21:41:46.526Z,0.60
2022-10-24T21:44:15.424Z,0.20
2022-10-24T21:46:43.564Z,0.73
2022-10-24T21:49:12.317Z,0.73
2022-10-24T21:51:41.544Z,0.13
2022-10-24T21:54:17.239Z,0.57
2022-10-24T21:56:47.099Z,0.20
2022-10-24T21:59:16.991Z,0.20
2022-10-24T22:01:46.757Z,0.60
2022-10-24T22:04:15.647Z,0.70
2022-10-24T22:06:44.704Z,0.63
2022-10-24T22:09:14.962Z,0.67
2022-10-24T22:11:43.485Z,0.63
2022-10-24T22:14:15.022Z,0.87
2022-10-24T22:16:43.929Z,0.50
2022-10-24T22:19:13.739Z,0.27
2022-10-24T22:21:43.889Z,0.30
2022-10-24T22:24:14.794Z,0.83
2022-10-24T22:26:43.915Z,0.43
2022-10-24T22:29:16.556Z,0.20
2022-10-24T22:31:45.887Z,0.73
2022-10-24T22:34:17.966Z,0.60
2022-10-24T22:36:56.169Z,0.50
2022-10-24T22:39:26.501Z,0.70
2022-10-24T22:41:55.595Z,0.37
2022-10-24T22:44:25.989Z,0.70
2022-10-24T22:47:35.933Z,0.40
2022-10-24T22:50:13.984Z,0.67
2022-10-24T22:52:42.860Z,0.50
2022-10-24T22:55:21.043Z,0.70
2022-10-24T22:57:50.079Z,0.67
2022-10-24T23:00:21.317Z,0.80
2022-10-24T23:02:52.369Z,1.17
2022-10-24T23:05:30.149Z,0.80
2022-10-24T23:08:04.897Z,0.77
2022-10-24T23:10:33.503Z,0.60
2022-10-24T23:13:02.272Z,0.60
2022-10-24T23:15:33.362Z,0.57
2022-10-24T23:18:01.837Z,0.80
2022-10-24T23:20:36.382Z,0.50
2022-10-24T23:23:24.620Z,1.13
2022-10-24T23:26:00.801Z,0.20
2022-10-24T23:28:37.436Z,0.40
2022-10-24T23:31:08.798Z,0.30
2022-10-24T23:33:37.428Z,0.20
2022-10-24T23:36:06.154Z,0.40
2022-10-24T23:38:34.964Z,0.40
2022-10-24T23:41:04.199Z,0.50
2022-10-24T23:43:33.202Z,1.03
2022-10-24T23:46:06.449Z,0.90
2022-10-24T23:48:56.981Z,0.80
2022-10-24T23:51:31.244Z,0.30
2022-10-24T23:53:59.968Z,0.40
2022-10-24T23:56:30.738Z,0.57
2022-10-24T23:58:58.813Z,0.67
